sensor_id;sensor_type;location;lat;lon;timestamp;temperature;humidity
18229;DHT22;9239;50.932;3.142;2024-03-07T00:00:09;4.60;99.90
18229;DHT22;9239;50.932;3.142;2024-03-07T00:02:42;4.50;99.90
18229;DHT22;9239;50.932;3.142;2024-03-07T00:05:09;4.60;99.90
18229;DHT22;9239;50.932;3.142;2024-03-07T00:07:37;4.50;99.90
18229;DHT22;9239;50.932;3.142;2024-03-07T00:10:06;4.50;99.90
18229;DHT22;9239;50.932;3.142;2024-03-07T00:12:34;4.50;99.90
18229;DHT22;9239;50.932;3.142;2024-03-07T00:15:01;4.40;99.90
18229;DHT22;9239;50.932;3.142;2024-03-07T00:17:28;4.40;99.90
18229;DHT22;9239;50.932;3.142;2024-03-07T00:19:55;4.40;99.90
18229;DHT22;9239;50.932;3.142;2024-03-07T00:22:21;4.40;99.90
18229;DHT22;9239;50.932;3.142;2024-03-07T00:24:49;4.30;99.90
18229;DHT22;9239;50.932;3.142;2024-03-07T00:27:18;4.30;99.90
18229;DHT22;9239;50.932;3.142;2024-03-07T00:29:46;4.30;99.90
18229;DHT22;9239;50.932;3.142;2024-03-07T00:32:18;4.30;99.90
18229;DHT22;9239;50.932;3.142;2024-03-07T00:34:45;4.30;99.90
18229;DHT22;9239;50.932;3.142;2024-03-07T00:37:12;4.30;99.90
18229;DHT22;9239;50.932;3.142;2024-03-07T00:39:38;4.30;99.90
18229;DHT22;9239;50.932;3.142;2024-03-07T00:42:06;4.30;99.90
18229;DHT22;9239;50.932;3.142;2024-03-07T00:44:34;4.20;99.90
18229;DHT22;9239;50.932;3.142;2024-03-07T00:47:01;4.20;99.90
18229;DHT22;9239;50.932;3.142;2024-03-07T00:49:28;4.20;99.90
18229;DHT22;9239;50.932;3.142;2024-03-07T00:51:55;4.20;99.90
18229;DHT22;9239;50.932;3.142;2024-03-07T00:54:22;4.20;99.90
18229;DHT22;9239;50.932;3.142;2024-03-07T00:56:49;4.20;99.90
18229;DHT22;9239;50.932;3.142;2024-03-07T00:59:16;4.20;99.90
18229;DHT22;9239;50.932;3.142;2024-03-07T01:01:44;4.20;99.90
18229;DHT22;9239;50.932;3.142;2024-03-07T01:04:11;4.20;99.90
18229;DHT22;9239;50.932;3.142;2024-03-07T01:06:38;4.20;99.90
18229;DHT22;9239;50.932;3.142;2024-03-07T01:09:06;4.20;99.90
18229;DHT22;9239;50.932;3.142;2024-03-07T01:11:40;4.20;99.90
18229;DHT22;9239;50.932;3.142;2024-03-07T01:14:06;4.20;99.90
18229;DHT22;9239;50.932;3.142;2024-03-07T01:16:33;4.20;99.90
18229;DHT22;9239;50.932;3.142;2024-03-07T01:19:02;4.10;99.90
18229;DHT22;9239;50.932;3.142;2024-03-07T01:21:31;4.10;99.90
18229;DHT22;9239;50.932;3.142;2024-03-07T01:23:58;4.10;99.90
18229;DHT22;9239;50.932;3.142;2024-03-07T01:26:25;4.10;99.90
18229;DHT22;9239;50.932;3.142;2024-03-07T01:28:52;4.20;99.90
18229;DHT22;9239;50.932;3.142;2024-03-07T01:31:20;4.30;99.90
18229;DHT22;9239;50.932;3.142;2024-03-07T01:33:47;4.50;99.90
18229;DHT22;9239;50.932;3.142;2024-03-07T01:36:16;4.50;99.90
18229;DHT22;9239;50.932;3.142;2024-03-07T01:38:43;4.50;99.90
18229;DHT22;9239;50.932;3.142;2024-03-07T01:41:10;4.60;99.90
18229;DHT22;9239;50.932;3.142;2024-03-07T01:43:37;4.80;99.90
18229;DHT22;9239;50.932;3.142;2024-03-07T01:46:04;5.10;99.90
18229;DHT22;9239;50.932;3.142;2024-03-07T01:48:32;5.30;99.90
18229;DHT22;9239;50.932;3.142;2024-03-07T01:50:59;5.40;99.90
18229;DHT22;9239;50.932;3.142;2024-03-07T01:53:27;5.60;99.90
18229;DHT22;9239;50.932;3.142;2024-03-07T01:55:56;5.70;99.90
18229;DHT22;9239;50.932;3.142;2024-03-07T01:58:24;5.70;99.90
18229;DHT22;9239;50.932;3.142;2024-03-07T02:00:51;5.70;99.90
18229;DHT22;9239;50.932;3.142;2024-03-07T02:03:18;5.90;99.90
18229;DHT22;9239;50.932;3.142;2024-03-07T02:05:45;5.90;99.90
18229;DHT22;9239;50.932;3.142;2024-03-07T02:08:11;5.90;99.90
18229;DHT22;9239;50.932;3.142;2024-03-07T02:10:41;5.90;99.90
18229;DHT22;9239;50.932;3.142;2024-03-07T02:13:08;6.00;99.90
18229;DHT22;9239;50.932;3.142;2024-03-07T02:15:35;6.00;99.90
18229;DHT22;9239;50.932;3.142;2024-03-07T02:18:03;6.00;99.90
18229;DHT22;9239;50.932;3.142;2024-03-07T02:20:30;5.90;99.90
18229;DHT22;9239;50.932;3.142;2024-03-07T02:22:58;5.90;99.90
18229;DHT22;9239;50.932;3.142;2024-03-07T02:25:25;5.90;99.90
18229;DHT22;9239;50.932;3.142;2024-03-07T02:27:53;5.80;99.90
18229;DHT22;9239;50.932;3.142;2024-03-07T02:30:20;5.80;99.90
18229;DHT22;9239;50.932;3.142;2024-03-07T02:32:47;5.80;99.90
18229;DHT22;9239;50.932;3.142;2024-03-07T02:35:18;5.70;99.90
18229;DHT22;9239;50.932;3.142;2024-03-07T02:37:45;5.80;99.90
18229;DHT22;9239;50.932;3.142;2024-03-07T02:40:14;5.80;99.90
18229;DHT22;9239;50.932;3.142;2024-03-07T02:42:42;5.70;99.90
18229;DHT22;9239;50.932;3.142;2024-03-07T02:45:09;5.70;99.90
18229;DHT22;9239;50.932;3.142;2024-03-07T02:47:40;5.80;99.90
18229;DHT22;9239;50.932;3.142;2024-03-07T02:50:09;5.80;99.90
18229;DHT22;9239;50.932;3.142;2024-03-07T02:52:36;5.70;99.90
18229;DHT22;9239;50.932;3.142;2024-03-07T02:55:05;5.70;99.90
18229;DHT22;9239;50.932;3.142;2024-03-07T02:57:35;5.70;99.90
18229;DHT22;9239;50.932;3.142;2024-03-07T03:00:03;5.70;99.90
18229;DHT22;9239;50.932;3.142;2024-03-07T03:02:39;5.80;99.90
18229;DHT22;9239;50.932;3.142;2024-03-07T03:05:06;5.70;99.90
18229;DHT22;9239;50.932;3.142;2024-03-07T03:07:34;5.60;99.90
18229;DHT22;9239;50.932;3.142;2024-03-07T03:10:01;5.70;99.90
18229;DHT22;9239;50.932;3.142;2024-03-07T03:12:37;5.70;99.90
18229;DHT22;9239;50.932;3.142;2024-03-07T03:15:05;5.70;99.90
18229;DHT22;9239;50.932;3.142;2024-03-07T03:17:33;5.70;99.90
18229;DHT22;9239;50.932;3.142;2024-03-07T03:20:01;5.70;99.90
18229;DHT22;9239;50.932;3.142;2024-03-07T03:22:29;5.60;99.90
18229;DHT22;9239;50.932;3.142;2024-03-07T03:24:56;5.60;99.90
18229;DHT22;9239;50.932;3.142;2024-03-07T03:27:22;5.60;99.90
18229;DHT22;9239;50.932;3.142;2024-03-07T03:29:51;5.60;99.90
18229;DHT22;9239;50.932;3.142;2024-03-07T03:32:17;5.70;99.90
18229;DHT22;9239;50.932;3.142;2024-03-07T03:34:44;5.70;99.90
18229;DHT22;9239;50.932;3.142;2024-03-07T03:37:11;5.60;99.90
18229;DHT22;9239;50.932;3.142;2024-03-07T03:39:38;5.60;99.90
18229;DHT22;9239;50.932;3.142;2024-03-07T03:42:05;5.60;99.90
18229;DHT22;9239;50.932;3.142;2024-03-07T03:44:33;5.50;99.90
18229;DHT22;9239;50.932;3.142;2024-03-07T03:47:02;5.50;99.90
18229;DHT22;9239;50.932;3.142;2024-03-07T03:49:29;5.40;99.90
18229;DHT22;9239;50.932;3.142;2024-03-07T03:51:57;5.40;99.90
18229;DHT22;9239;50.932;3.142;2024-03-07T03:54:25;5.40;99.90
18229;DHT22;9239;50.932;3.142;2024-03-07T03:56:52;5.40;99.90
18229;DHT22;9239;50.932;3.142;2024-03-07T03:59:19;5.40;99.90
18229;DHT22;9239;50.932;3.142;2024-03-07T04:01:46;5.40;99.90
18229;DHT22;9239;50.932;3.142;2024-03-07T04:04:15;5.40;99.90
18229;DHT22;9239;50.932;3.142;2024-03-07T04:06:41;5.30;99.90
18229;DHT22;9239;50.932;3.142;2024-03-07T04:09:08;5.30;99.90
18229;DHT22;9239;50.932;3.142;2024-03-07T04:11:35;5.30;99.90
18229;DHT22;9239;50.932;3.142;2024-03-07T04:14:03;5.20;99.90
18229;DHT22;9239;50.932;3.142;2024-03-07T04:16:30;5.20;99.90
18229;DHT22;9239;50.932;3.142;2024-03-07T04:18:57;5.10;99.90
18229;DHT22;9239;50.932;3.142;2024-03-07T04:21:25;5.10;99.90
18229;DHT22;9239;50.932;3.142;2024-03-07T04:23:52;5.10;99.90
18229;DHT22;9239;50.932;3.142;2024-03-07T04:26:19;5.10;99.90
18229;DHT22;9239;50.932;3.142;2024-03-07T04:28:46;5.00;99.90
18229;DHT22;9239;50.932;3.142;2024-03-07T04:31:13;5.00;99.90
18229;DHT22;9239;50.932;3.142;2024-03-07T04:33:40;5.00;99.90
18229;DHT22;9239;50.932;3.142;2024-03-07T04:36:07;5.10;99.90
18229;DHT22;9239;50.932;3.142;2024-03-07T04:38:36;5.10;99.90
18229;DHT22;9239;50.932;3.142;2024-03-07T04:41:03;5.00;99.90
18229;DHT22;9239;50.932;3.142;2024-03-07T04:43:30;5.10;99.90
18229;DHT22;9239;50.932;3.142;2024-03-07T04:45:59;5.10;99.90
18229;DHT22;9239;50.932;3.142;2024-03-07T04:48:26;5.10;99.90
18229;DHT22;9239;50.932;3.142;2024-03-07T04:50:53;5.10;99.90
18229;DHT22;9239;50.932;3.142;2024-03-07T04:53:19;5.10;99.90
18229;DHT22;9239;50.932;3.142;2024-03-07T04:55:48;5.10;99.90
18229;DHT22;9239;50.932;3.142;2024-03-07T04:58:14;5.10;99.90
18229;DHT22;9239;50.932;3.142;2024-03-07T05:00:41;5.20;99.90
18229;DHT22;9239;50.932;3.142;2024-03-07T05:03:08;5.20;99.90
18229;DHT22;9239;50.932;3.142;2024-03-07T05:05:36;5.30;99.90
18229;DHT22;9239;50.932;3.142;2024-03-07T05:08:04;5.30;99.90
18229;DHT22;9239;50.932;3.142;2024-03-07T05:10:31;5.30;99.90
18229;DHT22;9239;50.932;3.142;2024-03-07T05:12:59;5.30;99.90
18229;DHT22;9239;50.932;3.142;2024-03-07T05:15:26;5.30;99.90
18229;DHT22;9239;50.932;3.142;2024-03-07T05:17:53;5.40;99.90
18229;DHT22;9239;50.932;3.142;2024-03-07T05:20:21;5.30;99.90
18229;DHT22;9239;50.932;3.142;2024-03-07T05:22:48;5.30;99.90
18229;DHT22;9239;50.932;3.142;2024-03-07T05:25:16;5.30;99.90
18229;DHT22;9239;50.932;3.142;2024-03-07T05:27:44;5.30;99.90
18229;DHT22;9239;50.932;3.142;2024-03-07T05:30:12;5.30;99.90
18229;DHT22;9239;50.932;3.142;2024-03-07T05:32:40;5.40;99.90
18229;DHT22;9239;50.932;3.142;2024-03-07T05:35:08;5.40;99.90
18229;DHT22;9239;50.932;3.142;2024-03-07T05:37:36;5.40;99.90
18229;DHT22;9239;50.932;3.142;2024-03-07T05:40:08;5.40;99.90
18229;DHT22;9239;50.932;3.142;2024-03-07T05:42:35;5.40;99.90
18229;DHT22;9239;50.932;3.142;2024-03-07T05:45:02;5.40;99.90
18229;DHT22;9239;50.932;3.142;2024-03-07T05:47:30;5.30;99.90
18229;DHT22;9239;50.932;3.142;2024-03-07T05:49:57;5.30;99.90
18229;DHT22;9239;50.932;3.142;2024-03-07T05:52:24;5.30;99.90
18229;DHT22;9239;50.932;3.142;2024-03-07T05:54:51;5.30;99.90
18229;DHT22;9239;50.932;3.142;2024-03-07T05:57:18;5.30;99.90
18229;DHT22;9239;50.932;3.142;2024-03-07T05:59:45;5.30;99.90
18229;DHT22;9239;50.932;3.142;2024-03-07T06:02:13;5.30;99.90
18229;DHT22;9239;50.932;3.142;2024-03-07T06:04:42;5.30;99.90
18229;DHT22;9239;50.932;3.142;2024-03-07T06:07:09;5.30;99.90
18229;DHT22;9239;50.932;3.142;2024-03-07T06:09:38;5.30;99.90
18229;DHT22;9239;50.932;3.142;2024-03-07T06:12:05;5.30;99.90
18229;DHT22;9239;50.932;3.142;2024-03-07T06:14:34;5.20;99.90
18229;DHT22;9239;50.932;3.142;2024-03-07T06:17:01;5.20;99.90
18229;DHT22;9239;50.932;3.142;2024-03-07T06:19:28;5.20;99.90
18229;DHT22;9239;50.932;3.142;2024-03-07T06:21:57;5.20;99.90
18229;DHT22;9239;50.932;3.142;2024-03-07T06:24:24;5.20;99.90
18229;DHT22;9239;50.932;3.142;2024-03-07T06:26:55;5.30;99.90
18229;DHT22;9239;50.932;3.142;2024-03-07T06:29:29;5.20;99.90
18229;DHT22;9239;50.932;3.142;2024-03-07T06:31:56;5.30;99.90
18229;DHT22;9239;50.932;3.142;2024-03-07T06:34:24;5.30;99.90
18229;DHT22;9239;50.932;3.142;2024-03-07T06:36:51;5.30;99.90
18229;DHT22;9239;50.932;3.142;2024-03-07T06:39:19;5.30;99.90
18229;DHT22;9239;50.932;3.142;2024-03-07T06:41:47;5.30;99.90
18229;DHT22;9239;50.932;3.142;2024-03-07T06:44:14;5.30;99.90
18229;DHT22;9239;50.932;3.142;2024-03-07T06:46:42;5.30;99.90
18229;DHT22;9239;50.932;3.142;2024-03-07T06:49:11;5.30;99.90
18229;DHT22;9239;50.932;3.142;2024-03-07T06:51:38;5.40;99.90
18229;DHT22;9239;50.932;3.142;2024-03-07T06:54:05;5.30;99.90
18229;DHT22;9239;50.932;3.142;2024-03-07T06:56:33;5.40;99.90
18229;DHT22;9239;50.932;3.142;2024-03-07T06:59:00;5.40;99.90
18229;DHT22;9239;50.932;3.142;2024-03-07T07:01:30;5.40;99.90
18229;DHT22;9239;50.932;3.142;2024-03-07T07:03:57;5.50;99.90
18229;DHT22;9239;50.932;3.142;2024-03-07T07:06:28;5.50;99.90
18229;DHT22;9239;50.932;3.142;2024-03-07T07:08:56;5.60;99.90
18229;DHT22;9239;50.932;3.142;2024-03-07T07:11:24;5.60;99.90
18229;DHT22;9239;50.932;3.142;2024-03-07T07:13:52;5.60;99.90
18229;DHT22;9239;50.932;3.142;2024-03-07T07:16:19;5.70;99.90
18229;DHT22;9239;50.932;3.142;2024-03-07T07:18:46;5.70;99.90
18229;DHT22;9239;50.932;3.142;2024-03-07T07:21:13;5.70;99.90
18229;DHT22;9239;50.932;3.142;2024-03-07T07:23:41;5.80;99.90
18229;DHT22;9239;50.932;3.142;2024-03-07T07:26:08;6.00;99.90
18229;DHT22;9239;50.932;3.142;2024-03-07T07:28:35;6.00;99.90
18229;DHT22;9239;50.932;3.142;2024-03-07T07:31:05;6.00;99.90
18229;DHT22;9239;50.932;3.142;2024-03-07T07:33:32;6.00;99.90
18229;DHT22;9239;50.932;3.142;2024-03-07T07:35:58;6.00;99.90
18229;DHT22;9239;50.932;3.142;2024-03-07T07:38:25;6.00;99.90
18229;DHT22;9239;50.932;3.142;2024-03-07T07:40:52;6.10;99.90
18229;DHT22;9239;50.932;3.142;2024-03-07T07:43:19;6.00;99.90
18229;DHT22;9239;50.932;3.142;2024-03-07T07:45:46;6.10;99.90
18229;DHT22;9239;50.932;3.142;2024-03-07T07:48:14;6.10;99.90
18229;DHT22;9239;50.932;3.142;2024-03-07T07:50:42;6.10;99.90
18229;DHT22;9239;50.932;3.142;2024-03-07T07:53:09;6.20;99.90
18229;DHT22;9239;50.932;3.142;2024-03-07T07:55:36;6.20;99.90
18229;DHT22;9239;50.932;3.142;2024-03-07T07:58:04;6.30;99.90
18229;DHT22;9239;50.932;3.142;2024-03-07T08:00:31;6.30;99.90
18229;DHT22;9239;50.932;3.142;2024-03-07T08:02:59;6.40;99.90
18229;DHT22;9239;50.932;3.142;2024-03-07T08:05:29;6.40;99.90
18229;DHT22;9239;50.932;3.142;2024-03-07T08:07:58;6.50;99.90
18229;DHT22;9239;50.932;3.142;2024-03-07T08:10:27;6.50;99.90
18229;DHT22;9239;50.932;3.142;2024-03-07T08:12:55;6.50;99.90
18229;DHT22;9239;50.932;3.142;2024-03-07T08:15:22;6.50;99.90
18229;DHT22;9239;50.932;3.142;2024-03-07T08:17:49;6.50;99.90
18229;DHT22;9239;50.932;3.142;2024-03-07T08:20:18;6.50;99.90
18229;DHT22;9239;50.932;3.142;2024-03-07T08:22:48;6.60;99.90
18229;DHT22;9239;50.932;3.142;2024-03-07T08:25:17;6.60;99.90
18229;DHT22;9239;50.932;3.142;2024-03-07T08:27:45;6.70;99.90
18229;DHT22;9239;50.932;3.142;2024-03-07T08:30:13;6.70;99.90
18229;DHT22;9239;50.932;3.142;2024-03-07T08:32:43;6.90;99.90
18229;DHT22;9239;50.932;3.142;2024-03-07T08:35:10;7.00;99.90
18229;DHT22;9239;50.932;3.142;2024-03-07T08:37:38;7.00;99.90
18229;DHT22;9239;50.932;3.142;2024-03-07T08:40:08;7.00;99.90
18229;DHT22;9239;50.932;3.142;2024-03-07T08:42:37;7.00;99.90
18229;DHT22;9239;50.932;3.142;2024-03-07T08:45:05;7.20;99.90
18229;DHT22;9239;50.932;3.142;2024-03-07T08:47:32;7.20;99.90
18229;DHT22;9239;50.932;3.142;2024-03-07T08:49:59;7.30;99.90
18229;DHT22;9239;50.932;3.142;2024-03-07T08:52:26;7.40;99.90
18229;DHT22;9239;50.932;3.142;2024-03-07T08:54:54;7.50;99.90
18229;DHT22;9239;50.932;3.142;2024-03-07T08:57:22;7.40;99.90
18229;DHT22;9239;50.932;3.142;2024-03-07T08:59:49;7.50;99.90
18229;DHT22;9239;50.932;3.142;2024-03-07T09:02:16;7.50;99.90
18229;DHT22;9239;50.932;3.142;2024-03-07T09:04:43;7.60;99.90
18229;DHT22;9239;50.932;3.142;2024-03-07T09:07:10;7.70;99.90
18229;DHT22;9239;50.932;3.142;2024-03-07T09:09:37;7.80;99.90
18229;DHT22;9239;50.932;3.142;2024-03-07T09:12:05;7.90;99.90
18229;DHT22;9239;50.932;3.142;2024-03-07T09:14:33;8.00;99.90
18229;DHT22;9239;50.932;3.142;2024-03-07T09:17:01;8.10;99.90
18229;DHT22;9239;50.932;3.142;2024-03-07T09:19:28;8.20;99.90
18229;DHT22;9239;50.932;3.142;2024-03-07T09:21:54;8.20;99.90
18229;DHT22;9239;50.932;3.142;2024-03-07T09:24:22;8.30;99.90
18229;DHT22;9239;50.932;3.142;2024-03-07T09:26:49;8.40;99.90
18229;DHT22;9239;50.932;3.142;2024-03-07T09:29:17;8.30;99.90
18229;DHT22;9239;50.932;3.142;2024-03-07T09:31:46;8.40;99.90
18229;DHT22;9239;50.932;3.142;2024-03-07T09:34:13;8.60;99.90
18229;DHT22;9239;50.932;3.142;2024-03-07T09:36:40;8.60;99.90
18229;DHT22;9239;50.932;3.142;2024-03-07T09:39:08;8.60;99.90
18229;DHT22;9239;50.932;3.142;2024-03-07T09:41:35;8.50;99.90
18229;DHT22;9239;50.932;3.142;2024-03-07T09:44:03;8.60;99.90
18229;DHT22;9239;50.932;3.142;2024-03-07T09:46:31;8.60;99.90
18229;DHT22;9239;50.932;3.142;2024-03-07T09:49:00;8.80;99.90
18229;DHT22;9239;50.932;3.142;2024-03-07T09:51:28;8.80;99.90
18229;DHT22;9239;50.932;3.142;2024-03-07T09:53:57;8.80;99.90
18229;DHT22;9239;50.932;3.142;2024-03-07T09:56:26;8.90;99.90
18229;DHT22;9239;50.932;3.142;2024-03-07T09:58:57;9.00;99.90
18229;DHT22;9239;50.932;3.142;2024-03-07T10:01:25;8.90;99.90
18229;DHT22;9239;50.932;3.142;2024-03-07T10:03:59;9.00;99.90
18229;DHT22;9239;50.932;3.142;2024-03-07T10:06:31;9.00;99.90
18229;DHT22;9239;50.932;3.142;2024-03-07T10:08:59;9.00;99.90
18229;DHT22;9239;50.932;3.142;2024-03-07T10:11:26;9.00;99.90
18229;DHT22;9239;50.932;3.142;2024-03-07T10:13:54;9.10;99.90
18229;DHT22;9239;50.932;3.142;2024-03-07T10:16:21;9.20;99.90
18229;DHT22;9239;50.932;3.142;2024-03-07T10:18:48;9.30;99.90
18229;DHT22;9239;50.932;3.142;2024-03-07T10:21:19;9.50;99.90
18229;DHT22;9239;50.932;3.142;2024-03-07T10:23:46;9.50;99.90
18229;DHT22;9239;50.932;3.142;2024-03-07T10:26:13;9.50;99.90
18229;DHT22;9239;50.932;3.142;2024-03-07T10:28:40;9.50;99.90
18229;DHT22;9239;50.932;3.142;2024-03-07T10:31:07;9.50;99.90
18229;DHT22;9239;50.932;3.142;2024-03-07T10:33:37;9.60;99.90
18229;DHT22;9239;50.932;3.142;2024-03-07T10:36:05;9.60;99.90
18229;DHT22;9239;50.932;3.142;2024-03-07T10:38:37;9.70;99.90
18229;DHT22;9239;50.932;3.142;2024-03-07T10:41:06;9.80;99.90
18229;DHT22;9239;50.932;3.142;2024-03-07T10:43:36;9.90;99.90
18229;DHT22;9239;50.932;3.142;2024-03-07T10:46:10;10.00;99.90
18229;DHT22;9239;50.932;3.142;2024-03-07T10:48:39;10.10;99.90
18229;DHT22;9239;50.932;3.142;2024-03-07T10:51:14;10.10;99.90
18229;DHT22;9239;50.932;3.142;2024-03-07T10:53:55;10.10;99.90
18229;DHT22;9239;50.932;3.142;2024-03-07T10:56:35;10.20;99.90
18229;DHT22;9239;50.932;3.142;2024-03-07T10:59:16;10.20;99.90
18229;DHT22;9239;50.932;3.142;2024-03-07T11:01:49;10.40;99.90
18229;DHT22;9239;50.932;3.142;2024-03-07T11:04:17;10.40;99.90
18229;DHT22;9239;50.932;3.142;2024-03-07T11:06:47;10.30;99.90
18229;DHT22;9239;50.932;3.142;2024-03-07T11:09:17;10.30;99.90
18229;DHT22;9239;50.932;3.142;2024-03-07T11:11:49;10.20;99.90
18229;DHT22;9239;50.932;3.142;2024-03-07T11:14:17;10.20;99.90
18229;DHT22;9239;50.932;3.142;2024-03-07T11:16:46;10.20;99.90
18229;DHT22;9239;50.932;3.142;2024-03-07T11:19:31;10.30;99.90
18229;DHT22;9239;50.932;3.142;2024-03-07T11:22:02;10.30;99.90
18229;DHT22;9239;50.932;3.142;2024-03-07T11:24:41;10.40;99.90
18229;DHT22;9239;50.932;3.142;2024-03-07T11:27:09;10.50;99.90
18229;DHT22;9239;50.932;3.142;2024-03-07T11:29:47;10.60;99.90
18229;DHT22;9239;50.932;3.142;2024-03-07T11:32:19;10.60;99.90
18229;DHT22;9239;50.932;3.142;2024-03-07T11:34:47;10.70;99.90
18229;DHT22;9239;50.932;3.142;2024-03-07T11:37:17;10.70;99.90
18229;DHT22;9239;50.932;3.142;2024-03-07T11:39:50;10.80;99.90
18229;DHT22;9239;50.932;3.142;2024-03-07T11:42:26;11.00;99.90
18229;DHT22;9239;50.932;3.142;2024-03-07T11:44:54;11.10;99.90
18229;DHT22;9239;50.932;3.142;2024-03-07T11:47:22;11.10;99.90
18229;DHT22;9239;50.932;3.142;2024-03-07T11:49:50;11.00;99.90
18229;DHT22;9239;50.932;3.142;2024-03-07T11:52:19;11.00;99.90
18229;DHT22;9239;50.932;3.142;2024-03-07T11:54:46;11.00;99.90
18229;DHT22;9239;50.932;3.142;2024-03-07T11:57:17;11.10;99.90
18229;DHT22;9239;50.932;3.142;2024-03-07T11:59:45;11.10;99.90
18229;DHT22;9239;50.932;3.142;2024-03-07T12:02:18;11.10;99.90
18229;DHT22;9239;50.932;3.142;2024-03-07T12:04:47;11.10;99.90
18229;DHT22;9239;50.932;3.142;2024-03-07T12:07:14;11.20;99.90
18229;DHT22;9239;50.932;3.142;2024-03-07T12:09:43;11.10;99.90
18229;DHT22;9239;50.932;3.142;2024-03-07T12:12:17;11.10;99.90
18229;DHT22;9239;50.932;3.142;2024-03-07T12:14:47;11.10;99.90
18229;DHT22;9239;50.932;3.142;2024-03-07T12:17:14;11.10;99.90
18229;DHT22;9239;50.932;3.142;2024-03-07T12:19:42;11.20;99.90
18229;DHT22;9239;50.932;3.142;2024-03-07T12:22:09;11.10;99.90
18229;DHT22;9239;50.932;3.142;2024-03-07T12:24:38;11.20;99.90
18229;DHT22;9239;50.932;3.142;2024-03-07T12:27:09;11.30;99.90
18229;DHT22;9239;50.932;3.142;2024-03-07T12:29:39;11.40;99.90
18229;DHT22;9239;50.932;3.142;2024-03-07T12:32:08;11.50;99.90
18229;DHT22;9239;50.932;3.142;2024-03-07T12:34:36;11.60;99.90
18229;DHT22;9239;50.932;3.142;2024-03-07T12:37:06;11.60;99.90
18229;DHT22;9239;50.932;3.142;2024-03-07T12:39:33;11.70;99.90
18229;DHT22;9239;50.932;3.142;2024-03-07T12:42:05;11.80;99.90
18229;DHT22;9239;50.932;3.142;2024-03-07T12:44:43;11.80;99.90
18229;DHT22;9239;50.932;3.142;2024-03-07T12:47:11;11.70;99.90
18229;DHT22;9239;50.932;3.142;2024-03-07T12:49:39;11.60;99.90
18229;DHT22;9239;50.932;3.142;2024-03-07T12:52:07;11.50;99.90
18229;DHT22;9239;50.932;3.142;2024-03-07T12:54:34;11.60;99.90
18229;DHT22;9239;50.932;3.142;2024-03-07T12:57:03;11.60;99.90
18229;DHT22;9239;50.932;3.142;2024-03-07T12:59:31;11.60;99.90
18229;DHT22;9239;50.932;3.142;2024-03-07T13:01:59;11.60;99.90
18229;DHT22;9239;50.932;3.142;2024-03-07T13:04:26;11.60;99.90
18229;DHT22;9239;50.932;3.142;2024-03-07T13:06:54;11.50;99.90
18229;DHT22;9239;50.932;3.142;2024-03-07T13:09:25;11.50;99.90
18229;DHT22;9239;50.932;3.142;2024-03-07T13:11:53;11.60;99.90
18229;DHT22;9239;50.932;3.142;2024-03-07T13:14:20;11.80;99.90
18229;DHT22;9239;50.932;3.142;2024-03-07T13:16:47;11.90;99.90
18229;DHT22;9239;50.932;3.142;2024-03-07T13:19:17;11.80;99.90
18229;DHT22;9239;50.932;3.142;2024-03-07T13:21:46;11.80;99.90
18229;DHT22;9239;50.932;3.142;2024-03-07T13:24:14;11.80;99.90
18229;DHT22;9239;50.932;3.142;2024-03-07T13:26:43;11.70;99.90
18229;DHT22;9239;50.932;3.142;2024-03-07T13:29:10;11.80;99.90
18229;DHT22;9239;50.932;3.142;2024-03-07T13:31:39;12.00;99.90
18229;DHT22;9239;50.932;3.142;2024-03-07T13:34:08;12.20;99.90
18229;DHT22;9239;50.932;3.142;2024-03-07T13:36:40;12.40;99.90
18229;DHT22;9239;50.932;3.142;2024-03-07T13:39:07;12.60;99.90
18229;DHT22;9239;50.932;3.142;2024-03-07T13:41:37;12.70;99.90
18229;DHT22;9239;50.932;3.142;2024-03-07T13:44:04;12.60;99.90
18229;DHT22;9239;50.932;3.142;2024-03-07T13:46:31;12.60;99.90
18229;DHT22;9239;50.932;3.142;2024-03-07T13:48:59;12.50;99.90
18229;DHT22;9239;50.932;3.142;2024-03-07T13:51:33;12.50;99.90
18229;DHT22;9239;50.932;3.142;2024-03-07T13:54:02;12.50;99.90
18229;DHT22;9239;50.932;3.142;2024-03-07T13:56:56;12.50;99.90
18229;DHT22;9239;50.932;3.142;2024-03-07T13:59:51;12.50;99.90
18229;DHT22;9239;50.932;3.142;2024-03-07T14:02:43;12.40;99.90
18229;DHT22;9239;50.932;3.142;2024-03-07T14:05:47;12.50;99.90
18229;DHT22;9239;50.932;3.142;2024-03-07T14:08:40;12.40;99.90
18229;DHT22;9239;50.932;3.142;2024-03-07T14:14:48;12.40;99.90
18229;DHT22;9239;50.932;3.142;2024-03-07T14:20:50;12.20;99.90
18229;DHT22;9239;50.932;3.142;2024-03-07T14:23:34;12.20;99.90
18229;DHT22;9239;50.932;3.142;2024-03-07T14:26:46;12.20;99.90
18229;DHT22;9239;50.932;3.142;2024-03-07T14:29:27;12.20;99.90
18229;DHT22;9239;50.932;3.142;2024-03-07T14:31:59;12.10;99.90
18229;DHT22;9239;50.932;3.142;2024-03-07T14:34:36;12.10;99.90
18229;DHT22;9239;50.932;3.142;2024-03-07T14:37:19;12.00;99.90
18229;DHT22;9239;50.932;3.142;2024-03-07T14:39:50;12.00;99.90
18229;DHT22;9239;50.932;3.142;2024-03-07T14:42:19;12.20;99.90
18229;DHT22;9239;50.932;3.142;2024-03-07T14:44:46;12.20;99.90
18229;DHT22;9239;50.932;3.142;2024-03-07T14:47:19;12.20;99.90
18229;DHT22;9239;50.932;3.142;2024-03-07T14:49:46;12.20;99.90
18229;DHT22;9239;50.932;3.142;2024-03-07T14:52:13;12.00;99.90
18229;DHT22;9239;50.932;3.142;2024-03-07T14:54:42;12.10;99.90
18229;DHT22;9239;50.932;3.142;2024-03-07T14:57:10;12.00;99.90
18229;DHT22;9239;50.932;3.142;2024-03-07T14:59:37;12.00;99.90
18229;DHT22;9239;50.932;3.142;2024-03-07T15:02:06;12.00;99.90
18229;DHT22;9239;50.932;3.142;2024-03-07T15:04:37;12.00;99.90
18229;DHT22;9239;50.932;3.142;2024-03-07T15:07:07;11.90;99.90
18229;DHT22;9239;50.932;3.142;2024-03-07T15:09:35;11.90;99.90
18229;DHT22;9239;50.932;3.142;2024-03-07T15:12:04;11.90;99.90
18229;DHT22;9239;50.932;3.142;2024-03-07T15:14:32;12.00;99.90
18229;DHT22;9239;50.932;3.142;2024-03-07T15:17:00;12.00;99.90
18229;DHT22;9239;50.932;3.142;2024-03-07T15:19:29;12.00;99.90
18229;DHT22;9239;50.932;3.142;2024-03-07T15:21:58;11.90;99.90
18229;DHT22;9239;50.932;3.142;2024-03-07T15:24:24;11.80;99.90
18229;DHT22;9239;50.932;3.142;2024-03-07T15:26:51;11.80;99.90
18229;DHT22;9239;50.932;3.142;2024-03-07T15:29:18;11.80;99.90
18229;DHT22;9239;50.932;3.142;2024-03-07T15:31:48;11.90;99.90
18229;DHT22;9239;50.932;3.142;2024-03-07T15:34:15;11.80;99.90
18229;DHT22;9239;50.932;3.142;2024-03-07T15:36:42;11.80;99.90
18229;DHT22;9239;50.932;3.142;2024-03-07T15:39:11;11.70;99.90
18229;DHT22;9239;50.932;3.142;2024-03-07T15:41:52;11.80;99.90
18229;DHT22;9239;50.932;3.142;2024-03-07T15:44:19;11.80;99.90
18229;DHT22;9239;50.932;3.142;2024-03-07T15:46:46;11.70;99.90
18229;DHT22;9239;50.932;3.142;2024-03-07T15:49:14;11.70;99.90
18229;DHT22;9239;50.932;3.142;2024-03-07T15:51:42;11.70;99.90
18229;DHT22;9239;50.932;3.142;2024-03-07T15:54:12;11.80;99.90
18229;DHT22;9239;50.932;3.142;2024-03-07T15:56:43;11.80;99.90
18229;DHT22;9239;50.932;3.142;2024-03-07T15:59:11;11.80;99.90
18229;DHT22;9239;50.932;3.142;2024-03-07T16:01:38;11.80;99.90
18229;DHT22;9239;50.932;3.142;2024-03-07T16:04:05;11.60;99.90
18229;DHT22;9239;50.932;3.142;2024-03-07T16:06:32;11.50;99.90
18229;DHT22;9239;50.932;3.142;2024-03-07T16:08:59;11.50;99.90
18229;DHT22;9239;50.932;3.142;2024-03-07T16:11:27;11.40;99.90
18229;DHT22;9239;50.932;3.142;2024-03-07T16:13:54;11.20;99.90